sensor_id;sensor_type;location;lat;lon;timestamp;P1;durP1;ratioP1;P2;durP2;ratioP2
7215;SDS011;3649;48.798;9.798;2022-10-30T00:01:04;14.23;;;7.33;;
7215;SDS011;3649;48.798;9.798;2022-10-30T00:03:30;14.63;;;6.50;;
7215;SDS011;3649;48.798;9.798;2022-10-30T00:05:57;14.73;;;6.53;;
7215;SDS011;3649;48.798;9.798;2022-10-30T00:08:24;9.30;;;6.17;;
7215;SDS011;3649;48.798;9.798;2022-10-30T00:10:51;13.33;;;6.80;;
7215;SDS011;3649;48.798;9.798;2022-10-30T00:13:19;16.30;;;7.10;;
7215;SDS011;3649;48.798;9.798;2022-10-30T00:15:47;10.93;;;6.03;;
7215;SDS011;3649;48.798;9.798;2022-10-30T00:18:19;11.07;;;7.33;;
7215;SDS011;3649;48.798;9.798;2022-10-30T00:20:47;12.97;;;6.47;;
7215;SDS011;3649;48.798;9.798;2022-10-30T00:23:14;12.60;;;7.07;;
7215;SDS011;3649;48.798;9.798;2022-10-30T00:25:41;13.90;;;7.00;;
7215;SDS011;3649;48.798;9.798;2022-10-30T00:28:08;10.10;;;6.50;;
7215;SDS011;3649;48.798;9.798;2022-10-30T00:30:35;12.27;;;6.27;;
7215;SDS011;3649;48.798;9.798;2022-10-30T00:33:03;10.40;;;6.63;;
7215;SDS011;3649;48.798;9.798;2022-10-30T00:35:30;10.63;;;6.90;;
7215;SDS011;3649;48.798;9.798;2022-10-30T00:37:58;16.37;;;6.93;;
7215;SDS011;3649;48.798;9.798;2022-10-30T00:40:26;10.27;;;6.43;;
7215;SDS011;3649;48.798;9.798;2022-10-30T00:42:53;9.90;;;6.20;;
7215;SDS011;3649;48.798;9.798;2022-10-30T00:45:20;14.30;;;7.53;;
7215;SDS011;3649;48.798;9.798;2022-10-30T00:47:51;10.90;;;7.07;;
7215;SDS011;3649;48.798;9.798;2022-10-30T00:50:25;11.47;;;6.47;;
7215;SDS011;3649;48.798;9.798;2022-10-30T00:52:57;10.90;;;6.37;;
7215;SDS011;3649;48.798;9.798;2022-10-30T00:55:29;18.50;;;7.23;;
7215;SDS011;3649;48.798;9.798;2022-10-30T00:58:16;11.13;;;6.30;;
7215;SDS011;3649;48.798;9.798;2022-10-30T01:00:47;14.37;;;7.03;;
7215;SDS011;3649;48.798;9.798;2022-10-30T01:03:18;12.07;;;6.57;;
7215;SDS011;3649;48.798;9.798;2022-10-30T01:05:47;16.00;;;6.83;;
7215;SDS011;3649;48.798;9.798;2022-10-30T01:08:18;17.47;;;6.73;;
7215;SDS011;3649;48.798;9.798;2022-10-30T01:10:46;12.57;;;6.37;;
7215;SDS011;3649;48.798;9.798;2022-10-30T01:13:13;14.57;;;6.93;;
7215;SDS011;3649;48.798;9.798;2022-10-30T01:15:45;10.70;;;6.17;;
7215;SDS011;3649;48.798;9.798;2022-10-30T01:21:31;10.10;;;6.43;;
7215;SDS011;3649;48.798;9.798;2022-10-30T01:38:41;15.57;;;6.17;;
7215;SDS011;3649;48.798;9.798;2022-10-30T01:41:13;13.07;;;5.70;;
7215;SDS011;3649;48.798;9.798;2022-10-30T01:43:39;11.63;;;6.30;;
7215;SDS011;3649;48.798;9.798;2022-10-30T01:46:13;14.23;;;6.40;;
7215;SDS011;3649;48.798;9.798;2022-10-30T01:49:11;14.20;;;6.60;;
7215;SDS011;3649;48.798;9.798;2022-10-30T01:57:53;10.47;;;6.53;;
7215;SDS011;3649;48.798;9.798;2022-10-30T02:00:28;12.00;;;6.33;;
7215;SDS011;3649;48.798;9.798;2022-10-30T02:02:55;13.07;;;6.47;;
7215;SDS011;3649;48.798;9.798;2022-10-30T02:05:31;9.97;;;6.07;;
7215;SDS011;3649;48.798;9.798;2022-10-30T02:08:05;10.87;;;5.97;;
7215;SDS011;3649;48.798;9.798;2022-10-30T02:10:32;13.90;;;6.00;;
7215;SDS011;3649;48.798;9.798;2022-10-30T02:13:02;10.50;;;6.10;;
7215;SDS011;3649;48.798;9.798;2022-10-30T02:15:29;10.53;;;5.60;;
7215;SDS011;3649;48.798;9.798;2022-10-30T02:17:57;16.10;;;5.37;;
7215;SDS011;3649;48.798;9.798;2022-10-30T02:20:24;8.80;;;5.50;;
7215;SDS011;3649;48.798;9.798;2022-10-30T02:22:51;12.17;;;5.90;;
7215;SDS011;3649;48.798;9.798;2022-10-30T02:25:24;10.10;;;5.83;;
7215;SDS011;3649;48.798;9.798;2022-10-30T02:27:51;9.63;;;5.77;;
7215;SDS011;3649;48.798;9.798;2022-10-30T02:30:18;11.17;;;5.43;;
7215;SDS011;3649;48.798;9.798;2022-10-30T02:32:44;9.03;;;5.93;;
7215;SDS011;3649;48.798;9.798;2022-10-30T02:35:11;11.57;;;5.40;;
7215;SDS011;3649;48.798;9.798;2022-10-30T02:37:38;11.60;;;6.00;;
7215;SDS011;3649;48.798;9.798;2022-10-30T02:40:05;10.03;;;5.07;;
7215;SDS011;3649;48.798;9.798;2022-10-30T02:42:35;12.40;;;5.70;;
7215;SDS011;3649;48.798;9.798;2022-10-30T02:45:02;8.93;;;5.57;;
7215;SDS011;3649;48.798;9.798;2022-10-30T02:47:29;16.67;;;5.27;;
7215;SDS011;3649;48.798;9.798;2022-10-30T02:49:56;11.20;;;4.93;;
7215;SDS011;3649;48.798;9.798;2022-10-30T02:52:23;10.27;;;5.67;;
7215;SDS011;3649;48.798;9.798;2022-10-30T02:54:50;7.57;;;4.80;;
7215;SDS011;3649;48.798;9.798;2022-10-30T02:57:16;19.17;;;5.80;;
7215;SDS011;3649;48.798;9.798;2022-10-30T02:59:43;9.90;;;5.20;;
7215;SDS011;3649;48.798;9.798;2022-10-30T03:02:10;11.63;;;5.60;;
7215;SDS011;3649;48.798;9.798;2022-10-30T03:04:37;11.17;;;5.23;;
7215;SDS011;3649;48.798;9.798;2022-10-30T03:07:04;12.77;;;5.30;;
7215;SDS011;3649;48.798;9.798;2022-10-30T03:09:30;15.00;;;5.50;;
7215;SDS011;3649;48.798;9.798;2022-10-30T03:11:57;10.13;;;4.97;;
7215;SDS011;3649;48.798;9.798;2022-10-30T03:14:24;8.70;;;5.30;;
7215;SDS011;3649;48.798;9.798;2022-10-30T03:16:51;8.67;;;5.23;;
7215;SDS011;3649;48.798;9.798;2022-10-30T03:19:18;9.13;;;5.27;;
7215;SDS011;3649;48.798;9.798;2022-10-30T03:21:45;12.00;;;5.53;;
7215;SDS011;3649;48.798;9.798;2022-10-30T03:24:12;8.97;;;4.90;;
7215;SDS011;3649;48.798;9.798;2022-10-30T03:26:39;8.70;;;5.37;;
7215;SDS011;3649;48.798;9.798;2022-10-30T03:29:06;8.97;;;5.23;;
7215;SDS011;3649;48.798;9.798;2022-10-30T03:31:33;14.13;;;5.43;;
7215;SDS011;3649;48.798;9.798;2022-10-30T03:33:59;10.10;;;4.53;;
7215;SDS011;3649;48.798;9.798;2022-10-30T03:36:26;11.97;;;5.80;;
7215;SDS011;3649;48.798;9.798;2022-10-30T03:38:53;9.80;;;4.90;;
7215;SDS011;3649;48.798;9.798;2022-10-30T03:41:20;7.43;;;4.87;;
7215;SDS011;3649;48.798;9.798;2022-10-30T03:43:47;11.60;;;5.17;;
7215;SDS011;3649;48.798;9.798;2022-10-30T03:46:14;8.23;;;5.40;;
7215;SDS011;3649;48.798;9.798;2022-10-30T03:48:40;5.00;;;4.27;;
7215;SDS011;3649;48.798;9.798;2022-10-30T03:51:07;8.57;;;4.47;;
7215;SDS011;3649;48.798;9.798;2022-10-30T03:53:34;9.70;;;4.67;;
7215;SDS011;3649;48.798;9.798;2022-10-30T03:56:03;9.27;;;5.27;;
7215;SDS011;3649;48.798;9.798;2022-10-30T03:58:30;12.17;;;5.03;;
7215;SDS011;3649;48.798;9.798;2022-10-30T04:01:03;8.07;;;5.03;;
7215;SDS011;3649;48.798;9.798;2022-10-30T04:03:30;8.23;;;4.33;;
7215;SDS011;3649;48.798;9.798;2022-10-30T04:05:57;12.77;;;4.40;;
7215;SDS011;3649;48.798;9.798;2022-10-30T04:08:25;11.60;;;4.87;;
7215;SDS011;3649;48.798;9.798;2022-10-30T04:10:52;9.67;;;4.47;;
7215;SDS011;3649;48.798;9.798;2022-10-30T04:13:19;8.23;;;4.43;;
7215;SDS011;3649;48.798;9.798;2022-10-30T04:15:46;9.57;;;4.70;;
7215;SDS011;3649;48.798;9.798;2022-10-30T04:18:22;10.27;;;5.57;;
7215;SDS011;3649;48.798;9.798;2022-10-30T04:20:50;13.40;;;5.80;;
7215;SDS011;3649;48.798;9.798;2022-10-30T04:23:17;10.53;;;5.00;;
7215;SDS011;3649;48.798;9.798;2022-10-30T04:25:45;8.07;;;5.43;;
7215;SDS011;3649;48.798;9.798;2022-10-30T04:28:13;10.60;;;5.00;;
7215;SDS011;3649;48.798;9.798;2022-10-30T04:30:40;11.40;;;4.80;;
7215;SDS011;3649;48.798;9.798;2022-10-30T04:33:09;8.10;;;4.77;;
7215;SDS011;3649;48.798;9.798;2022-10-30T04:35:37;8.63;;;4.60;;
7215;SDS011;3649;48.798;9.798;2022-10-30T04:38:09;11.37;;;5.30;;
7215;SDS011;3649;48.798;9.798;2022-10-30T04:40:38;7.77;;;4.93;;
7215;SDS011;3649;48.798;9.798;2022-10-30T04:43:06;10.00;;;4.47;;
7215;SDS011;3649;48.798;9.798;2022-10-30T04:45:34;13.90;;;4.67;;
7215;SDS011;3649;48.798;9.798;2022-10-30T04:50:41;10.43;;;5.03;;
7215;SDS011;3649;48.798;9.798;2022-10-30T04:53:11;5.57;;;4.30;;
7215;SDS011;3649;48.798;9.798;2022-10-30T04:55:40;10.90;;;4.50;;
7215;SDS011;3649;48.798;9.798;2022-10-30T04:58:07;10.87;;;5.07;;
7215;SDS011;3649;48.798;9.798;2022-10-30T05:00:34;9.50;;;5.63;;
7215;SDS011;3649;48.798;9.798;2022-10-30T05:03:01;11.87;;;9.00;;
7215;SDS011;3649;48.798;9.798;2022-10-30T05:05:29;8.33;;;5.47;;
7215;SDS011;3649;48.798;9.798;2022-10-30T05:07:56;12.20;;;5.23;;
7215;SDS011;3649;48.798;9.798;2022-10-30T05:10:24;8.53;;;4.73;;
7215;SDS011;3649;48.798;9.798;2022-10-30T05:12:51;15.83;;;5.23;;
7215;SDS011;3649;48.798;9.798;2022-10-30T05:15:19;10.07;;;4.80;;
7215;SDS011;3649;48.798;9.798;2022-10-30T05:17:49;5.97;;;4.83;;
7215;SDS011;3649;48.798;9.798;2022-10-30T05:20:16;14.03;;;5.27;;
7215;SDS011;3649;48.798;9.798;2022-10-30T05:22:44;12.87;;;5.27;;
7215;SDS011;3649;48.798;9.798;2022-10-30T05:25:11;10.80;;;5.27;;
7215;SDS011;3649;48.798;9.798;2022-10-30T05:27:38;8.80;;;5.30;;
7215;SDS011;3649;48.798;9.798;2022-10-30T05:30:05;9.20;;;4.50;;
7215;SDS011;3649;48.798;9.798;2022-10-30T05:32:32;7.47;;;4.90;;
7215;SDS011;3649;48.798;9.798;2022-10-30T05:34:59;10.23;;;5.40;;
7215;SDS011;3649;48.798;9.798;2022-10-30T05:37:26;8.43;;;5.10;;
7215;SDS011;3649;48.798;9.798;2022-10-30T05:39:52;14.83;;;5.53;;
7215;SDS011;3649;48.798;9.798;2022-10-30T05:42:20;10.97;;;5.10;;
7215;SDS011;3649;48.798;9.798;2022-10-30T05:44:47;14.30;;;5.10;;
7215;SDS011;3649;48.798;9.798;2022-10-30T05:47:26;9.90;;;4.53;;
7215;SDS011;3649;48.798;9.798;2022-10-30T05:49:53;12.43;;;6.10;;
7215;SDS011;3649;48.798;9.798;2022-10-30T05:52:20;6.60;;;4.50;;
7215;SDS011;3649;48.798;9.798;2022-10-30T05:54:47;7.23;;;5.00;;
7215;SDS011;3649;48.798;9.798;2022-10-30T05:57:14;8.23;;;4.43;;
7215;SDS011;3649;48.798;9.798;2022-10-30T05:59:40;7.30;;;5.07;;
7215;SDS011;3649;48.798;9.798;2022-10-30T06:02:07;10.50;;;4.23;;
7215;SDS011;3649;48.798;9.798;2022-10-30T06:04:34;8.27;;;4.73;;
7215;SDS011;3649;48.798;9.798;2022-10-30T06:07:01;12.13;;;4.47;;
7215;SDS011;3649;48.798;9.798;2022-10-30T06:09:28;8.83;;;4.53;;
7215;SDS011;3649;48.798;9.798;2022-10-30T06:11:54;9.20;;;5.33;;
7215;SDS011;3649;48.798;9.798;2022-10-30T06:14:21;10.37;;;4.67;;
7215;SDS011;3649;48.798;9.798;2022-10-30T06:16:48;6.57;;;4.90;;
7215;SDS011;3649;48.798;9.798;2022-10-30T06:19:15;10.50;;;4.40;;
7215;SDS011;3649;48.798;9.798;2022-10-30T06:21:44;14.33;;;4.50;;
7215;SDS011;3649;48.798;9.798;2022-10-30T06:24:11;10.27;;;4.50;;
7215;SDS011;3649;48.798;9.798;2022-10-30T06:26:39;8.67;;;4.43;;
7215;SDS011;3649;48.798;9.798;2022-10-30T06:29:06;10.97;;;4.60;;
7215;SDS011;3649;48.798;9.798;2022-10-30T06:31:33;13.70;;;4.80;;
7215;SDS011;3649;48.798;9.798;2022-10-30T06:34:00;8.77;;;4.60;;
7215;SDS011;3649;48.798;9.798;2022-10-30T06:36:27;10.83;;;4.30;;
7215;SDS011;3649;48.798;9.798;2022-10-30T06:38:54;10.67;;;4.50;;
7215;SDS011;3649;48.798;9.798;2022-10-30T06:41:20;6.03;;;4.53;;
7215;SDS011;3649;48.798;9.798;2022-10-30T06:43:55;7.80;;;4.30;;
7215;SDS011;3649;48.798;9.798;2022-10-30T06:46:22;9.13;;;5.03;;
7215;SDS011;3649;48.798;9.798;2022-10-30T06:48:55;9.00;;;4.90;;
7215;SDS011;3649;48.798;9.798;2022-10-30T06:51:22;7.13;;;4.50;;
7215;SDS011;3649;48.798;9.798;2022-10-30T06:53:49;14.23;;;4.87;;
7215;SDS011;3649;48.798;9.798;2022-10-30T06:56:16;9.33;;;4.67;;
7215;SDS011;3649;48.798;9.798;2022-10-30T06:58:43;12.70;;;5.00;;
7215;SDS011;3649;48.798;9.798;2022-10-30T07:01:10;12.17;;;5.47;;
7215;SDS011;3649;48.798;9.798;2022-10-30T07:03:36;7.17;;;4.47;;
7215;SDS011;3649;48.798;9.798;2022-10-30T07:06:03;6.03;;;4.10;;
7215;SDS011;3649;48.798;9.798;2022-10-30T07:08:30;6.33;;;4.63;;
7215;SDS011;3649;48.798;9.798;2022-10-30T07:10:57;5.97;;;4.53;;
7215;SDS011;3649;48.798;9.798;2022-10-30T07:13:24;11.00;;;6.93;;
7215;SDS011;3649;48.798;9.798;2022-10-30T07:15:51;10.07;;;7.50;;
7215;SDS011;3649;48.798;9.798;2022-10-30T07:18:18;14.67;;;7.07;;
7215;SDS011;3649;48.798;9.798;2022-10-30T07:20:45;14.00;;;6.57;;
7215;SDS011;3649;48.798;9.798;2022-10-30T07:23:12;10.47;;;6.50;;
7215;SDS011;3649;48.798;9.798;2022-10-30T07:25:38;13.53;;;7.37;;
7215;SDS011;3649;48.798;9.798;2022-10-30T07:28:05;13.80;;;7.10;;
7215;SDS011;3649;48.798;9.798;2022-10-30T07:30:32;11.03;;;6.57;;
7215;SDS011;3649;48.798;9.798;2022-10-30T07:32:59;12.50;;;6.70;;
7215;SDS011;3649;48.798;9.798;2022-10-30T07:35:28;11.30;;;7.27;;
7215;SDS011;3649;48.798;9.798;2022-10-30T07:38:02;14.37;;;8.47;;
7215;SDS011;3649;48.798;9.798;2022-10-30T07:40:34;11.27;;;7.00;;
7215;SDS011;3649;48.798;9.798;2022-10-30T07:43:02;13.10;;;7.13;;
7215;SDS011;3649;48.798;9.798;2022-10-30T07:45:29;16.27;;;6.73;;
7215;SDS011;3649;48.798;9.798;2022-10-30T07:47:57;10.07;;;6.20;;
7215;SDS011;3649;48.798;9.798;2022-10-30T07:50:24;12.00;;;7.50;;
7215;SDS011;3649;48.798;9.798;2022-10-30T07:52:51;12.67;;;7.63;;
7215;SDS011;3649;48.798;9.798;2022-10-30T07:55:19;11.37;;;6.63;;
7215;SDS011;3649;48.798;9.798;2022-10-30T07:57:45;15.73;;;6.60;;
7215;SDS011;3649;48.798;9.798;2022-10-30T08:00:13;10.73;;;5.97;;
7215;SDS011;3649;48.798;9.798;2022-10-30T08:02:40;10.33;;;5.20;;
7215;SDS011;3649;48.798;9.798;2022-10-30T08:05:14;10.60;;;4.80;;
7215;SDS011;3649;48.798;9.798;2022-10-30T08:07:41;7.50;;;4.80;;
7215;SDS011;3649;48.798;9.798;2022-10-30T08:10:11;11.63;;;4.40;;
7215;SDS011;3649;48.798;9.798;2022-10-30T08:12:38;11.50;;;5.33;;
7215;SDS011;3649;48.798;9.798;2022-10-30T08:15:07;9.37;;;5.17;;
7215;SDS011;3649;48.798;9.798;2022-10-30T08:17:40;11.20;;;5.60;;
7215;SDS011;3649;48.798;9.798;2022-10-30T08:20:11;8.33;;;5.40;;
7215;SDS011;3649;48.798;9.798;2022-10-30T08:22:49;14.53;;;5.13;;
7215;SDS011;3649;48.798;9.798;2022-10-30T08:25:18;9.10;;;4.90;;
7215;SDS011;3649;48.798;9.798;2022-10-30T08:30:18;12.77;;;5.70;;
7215;SDS011;3649;48.798;9.798;2022-10-30T08:32:45;8.93;;;4.83;;
7215;SDS011;3649;48.798;9.798;2022-10-30T08:35:12;14.07;;;4.83;;
7215;SDS011;3649;48.798;9.798;2022-10-30T08:37:45;9.03;;;4.30;;
7215;SDS011;3649;48.798;9.798;2022-10-30T08:40:11;13.50;;;6.60;;
7215;SDS011;3649;48.798;9.798;2022-10-30T08:42:38;16.23;;;6.93;;
7215;SDS011;3649;48.798;9.798;2022-10-30T08:45:05;13.30;;;6.00;;
7215;SDS011;3649;48.798;9.798;2022-10-30T08:47:32;9.47;;;5.97;;
7215;SDS011;3649;48.798;9.798;2022-10-30T08:49:59;12.80;;;6.10;;
7215;SDS011;3649;48.798;9.798;2022-10-30T08:52:26;11.57;;;5.70;;
7215;SDS011;3649;48.798;9.798;2022-10-30T08:54:53;9.67;;;5.80;;
7215;SDS011;3649;48.798;9.798;2022-10-30T08:57:20;8.03;;;5.10;;
7215;SDS011;3649;48.798;9.798;2022-10-30T08:59:46;13.87;;;5.10;;
7215;SDS011;3649;48.798;9.798;2022-10-30T09:02:13;14.80;;;5.57;;
7215;SDS011;3649;48.798;9.798;2022-10-30T09:04:40;11.43;;;6.00;;
7215;SDS011;3649;48.798;9.798;2022-10-30T09:07:07;10.47;;;5.93;;
7215;SDS011;3649;48.798;9.798;2022-10-30T09:09:38;11.23;;;5.80;;
7215;SDS011;3649;48.798;9.798;2022-10-30T09:12:05;10.60;;;5.93;;
7215;SDS011;3649;48.798;9.798;2022-10-30T09:14:32;13.30;;;5.57;;
7215;SDS011;3649;48.798;9.798;2022-10-30T09:16:58;8.97;;;5.13;;
7215;SDS011;3649;48.798;9.798;2022-10-30T09:19:25;12.33;;;5.93;;
7215;SDS011;3649;48.798;9.798;2022-10-30T09:21:53;8.90;;;5.20;;
7215;SDS011;3649;48.798;9.798;2022-10-30T09:24:20;9.87;;;5.37;;
7215;SDS011;3649;48.798;9.798;2022-10-30T09:26:47;11.07;;;5.50;;
7215;SDS011;3649;48.798;9.798;2022-10-30T09:29:14;15.83;;;5.80;;
7215;SDS011;3649;48.798;9.798;2022-10-30T09:31:40;14.17;;;5.43;;
7215;SDS011;3649;48.798;9.798;2022-10-30T09:34:07;17.50;;;5.17;;
7215;SDS011;3649;48.798;9.798;2022-10-30T09:36:34;13.03;;;5.27;;
7215;SDS011;3649;48.798;9.798;2022-10-30T09:39:01;11.10;;;6.07;;
7215;SDS011;3649;48.798;9.798;2022-10-30T09:46:59;11.93;;;5.27;;
7215;SDS011;3649;48.798;9.798;2022-10-30T09:56:09;17.10;;;4.50;;
7215;SDS011;3649;48.798;9.798;2022-10-30T10:04:02;18.00;;;5.43;;
7215;SDS011;3649;48.798;9.798;2022-10-30T10:07:00;7.73;;;4.70;;
7215;SDS011;3649;48.798;9.798;2022-10-30T10:09:32;9.50;;;4.97;;
7215;SDS011;3649;48.798;9.798;2022-10-30T10:12:22;13.33;;;4.67;;
7215;SDS011;3649;48.798;9.798;2022-10-30T10:14:55;8.23;;;4.67;;
7215;SDS011;3649;48.798;9.798;2022-10-30T10:17:30;9.63;;;4.13;;
7215;SDS011;3649;48.798;9.798;2022-10-30T10:20:02;10.17;;;4.83;;
7215;SDS011;3649;48.798;9.798;2022-10-30T10:22:42;11.70;;;5.30;;
7215;SDS011;3649;48.798;9.798;2022-10-30T10:25:16;8.97;;;4.50;;
7215;SDS011;3649;48.798;9.798;2022-10-30T10:28:10;9.00;;;4.83;;
7215;SDS011;3649;48.798;9.798;2022-10-30T10:30:58;5.67;;;3.87;;
7215;SDS011;3649;48.798;9.798;2022-10-30T10:50:27;15.20;;;3.93;;
7215;SDS011;3649;48.798;9.798;2022-10-30T10:55:35;8.90;;;4.00;;
7215;SDS011;3649;48.798;9.798;2022-10-30T10:58:13;8.50;;;3.70;;
7215;SDS011;3649;48.798;9.798;2022-10-30T11:01:01;12.60;;;3.90;;
7215;SDS011;3649;48.798;9.798;2022-10-30T11:03:34;11.50;;;3.93;;
7215;SDS011;3649;48.798;9.798;2022-10-30T11:06:21;8.30;;;4.00;;
7215;SDS011;3649;48.798;9.798;2022-10-30T11:08:57;14.27;;;4.30;;
7215;SDS011;3649;48.798;9.798;2022-10-30T11:11:42;12.17;;;3.50;;
7215;SDS011;3649;48.798;9.798;2022-10-30T11:14:16;6.30;;;3.43;;
7215;SDS011;3649;48.798;9.798;2022-10-30T11:19:16;7.93;;;4.33;;
7215;SDS011;3649;48.798;9.798;2022-10-30T11:21:50;11.17;;;4.30;;
7215;SDS011;3649;48.798;9.798;2022-10-30T11:24:30;8.70;;;3.73;;
7215;SDS011;3649;48.798;9.798;2022-10-30T11:27:44;10.67;;;4.03;;
7215;SDS011;3649;48.798;9.798;2022-10-30T11:29:51;9.93;;;3.80;;
7215;SDS011;3649;48.798;9.798;2022-10-30T11:32:27;8.60;;;3.70;;
7215;SDS011;3649;48.798;9.798;2022-10-30T11:37:36;8.03;;;4.10;;
7215;SDS011;3649;48.798;9.798;2022-10-30T11:42:38;8.27;;;3.13;;
7215;SDS011;3649;48.798;9.798;2022-10-30T11:45:17;9.07;;;3.87;;
7215;SDS011;3649;48.798;9.798;2022-10-30T11:47:49;10.20;;;3.40;;
7215;SDS011;3649;48.798;9.798;2022-10-30T11:50:18;5.97;;;3.50;;
7215;SDS011;3649;48.798;9.798;2022-10-30T11:52:49;8.87;;;3.10;;
7215;SDS011;3649;48.798;9.798;2022-10-30T11:57:58;6.23;;;2.97;;
7215;SDS011;3649;48.798;9.798;2022-10-30T12:00:27;6.80;;;3.70;;
7215;SDS011;3649;48.798;9.798;2022-10-30T12:02:56;10.00;;;3.23;;
7215;SDS011;3649;48.798;9.798;2022-10-30T12:05:30;8.33;;;2.90;;
7215;SDS011;3649;48.798;9.798;2022-10-30T12:11:19;7.07;;;2.90;;
7215;SDS011;3649;48.798;9.798;2022-10-30T12:13:23;8.10;;;3.10;;
7215;SDS011;3649;48.798;9.798;2022-10-30T12:18:42;5.70;;;2.90;;
7215;SDS011;3649;48.798;9.798;2022-10-30T12:21:20;6.27;;;2.97;;
7215;SDS011;3649;48.798;9.798;2022-10-30T12:23:51;9.37;;;3.13;;
7215;SDS011;3649;48.798;9.798;2022-10-30T12:26:22;8.07;;;3.23;;
7215;SDS011;3649;48.798;9.798;2022-10-30T12:28:57;11.80;;;3.17;;
7215;SDS011;3649;48.798;9.798;2022-10-30T12:31:31;9.73;;;3.07;;
7215;SDS011;3649;48.798;9.798;2022-10-30T12:37:51;8.87;;;3.17;;
7215;SDS011;3649;48.798;9.798;2022-10-30T12:42:43;10.07;;;2.80;;
7215;SDS011;3649;48.798;9.798;2022-10-30T12:45:20;6.03;;;2.73;;
7215;SDS011;3649;48.798;9.798;2022-10-30T12:54:06;12.17;;;3.17;;
7215;SDS011;3649;48.798;9.798;2022-10-30T12:57:02;5.57;;;2.47;;
7215;SDS011;3649;48.798;9.798;2022-10-30T12:59:37;6.33;;;2.50;;
7215;SDS011;3649;48.798;9.798;2022-10-30T13:02:18;5.70;;;2.87;;
7215;SDS011;3649;48.798;9.798;2022-10-30T13:05:00;7.03;;;2.87;;
7215;SDS011;3649;48.798;9.798;2022-10-30T13:07:40;6.80;;;2.73;;
7215;SDS011;3649;48.798;9.798;2022-10-30T13:10:30;5.00;;;2.43;;
7215;SDS011;3649;48.798;9.798;2022-10-30T13:13:18;8.90;;;2.97;;
7215;SDS011;3649;48.798;9.798;2022-10-30T13:15:53;7.73;;;2.70;;
7215;SDS011;3649;48.798;9.798;2022-10-30T13:18:25;8.03;;;3.03;;
7215;SDS011;3649;48.798;9.798;2022-10-30T13:24:00;12.40;;;3.93;;
7215;SDS011;3649;48.798;9.798;2022-10-30T13:26:40;6.10;;;3.90;;
7215;SDS011;3649;48.798;9.798;2022-10-30T13:40:33;7.77;;;4.23;;
7215;SDS011;3649;48.798;9.798;2022-10-30T13:49:07;7.13;;;3.77;;
7215;SDS011;3649;48.798;9.798;2022-10-30T13:51:54;9.40;;;3.57;;
7215;SDS011;3649;48.798;9.798;2022-10-30T13:54:31;8.40;;;4.33;;
7215;SDS011;3649;48.798;9.798;2022-10-30T13:57:05;11.43;;;3.97;;
7215;SDS011;3649;48.798;9.798;2022-10-30T14:02:16;10.10;;;4.13;;
7215;SDS011;3649;48.798;9.798;2022-10-30T14:07:45;9.97;;;4.37;;
7215;SDS011;3649;48.798;9.798;2022-10-30T14:15:34;9.03;;;3.30;;
7215;SDS011;3649;48.798;9.798;2022-10-30T14:20:47;9.37;;;3.93;;
7215;SDS011;3649;48.798;9.798;2022-10-30T14:28:37;9.63;;;3.37;;
7215;SDS011;3649;48.798;9.798;2022-10-30T14:31:06;9.13;;;3.20;;
7215;SDS011;3649;48.798;9.798;2022-10-30T14:33:48;5.13;;;3.17;;
7215;SDS011;3649;48.798;9.798;2022-10-30T14:36:17;10.37;;;3.90;;
7215;SDS011;3649;48.798;9.798;2022-10-30T14:52:13;8.70;;;3.27;;
7215;SDS011;3649;48.798;9.798;2022-10-30T15:00:27;8.37;;;3.20;;
7215;SDS011;3649;48.798;9.798;2022-10-30T15:05:50;10.03;;;3.33;;
7215;SDS011;3649;48.798;9.798;2022-10-30T15:13:46;9.03;;;3.77;;
7215;SDS011;3649;48.798;9.798;2022-10-30T15:16:18;8.23;;;3.40;;
7215;SDS011;3649;48.798;9.798;2022-10-30T15:18:48;7.17;;;3.27;;
7215;SDS011;3649;48.798;9.798;2022-10-30T15:21:30;7.23;;;3.50;;
7215;SDS011;3649;48.798;9.798;2022-10-30T15:24:09;7.73;;;3.40;;
7215;SDS011;3649;48.798;9.798;2022-10-30T15:26:48;5.57;;;3.27;;
7215;SDS011;3649;48.798;9.798;2022-10-30T15:29:28;9.87;;;3.90;;
7215;SDS011;3649;48.798;9.798;2022-10-30T15:31:58;6.30;;;3.63;;
7215;SDS011;3649;48.798;9.798;2022-10-30T15:34:31;6.03;;;3.13;;
7215;SDS011;3649;48.798;9.798;2022-10-30T15:36:58;9.67;;;4.63;;
7215;SDS011;3649;48.798;9.798;2022-10-30T15:39:35;10.00;;;3.83;;
7215;SDS011;3649;48.798;9.798;2022-10-30T15:42:02;7.53;;;3.80;;
7215;SDS011;3649;48.798;9.798;2022-10-30T15:44:34;6.33;;;3.23;;
7215;SDS011;3649;48.798;9.798;2022-10-30T15:47:08;9.37;;;3.70;;
7215;SDS011;3649;48.798;9.798;2022-10-30T15:49:50;10.27;;;4.20;;
7215;SDS011;3649;48.798;9.798;2022-10-30T15:52:26;9.60;;;5.17;;
7215;SDS011;3649;48.798;9.798;2022-10-30T15:54:58;10.67;;;4.77;;
7215;SDS011;3649;48.798;9.798;2022-10-30T15:57:28;10.40;;;4.60;;
7215;SDS011;3649;48.798;9.798;2022-10-30T16:00:23;8.13;;;4.80;;
7215;SDS011;3649;48.798;9.798;2022-10-30T16:03:03;9.30;;;4.37;;
7215;SDS011;3649;48.798;9.798;2022-10-30T16:05:41;7.80;;;4.53;;
7215;SDS011;3649;48.798;9.798;2022-10-30T16:08:18;8.93;;;5.37;;
7215;SDS011;3649;48.798;9.798;2022-10-30T16:10:47;10.50;;;5.40;;
7215;SDS011;3649;48.798;9.798;2022-10-30T16:13:20;8.10;;;5.57;;
7215;SDS011;3649;48.798;9.798;2022-10-30T16:15:53;8.23;;;4.97;;
7215;SDS011;3649;48.798;9.798;2022-10-30T16:18:21;10.40;;;5.97;;
7215;SDS011;3649;48.798;9.798;2022-10-30T16:20:54;12.53;;;5.77;;
7215;SDS011;3649;48.798;9.798;2022-10-30T16:23:26;8.83;;;6.07;;
7215;SDS011;3649;48.798;9.798;2022-10-30T16:25:55;12.87;;;5.80;;
7215;SDS011;3649;48.798;9.798;2022-10-30T16:28:30;7.00;;;5.30;;
7215;SDS011;3649;48.798;9.798;2022-10-30T16:31:06;9.03;;;5.20;;
7215;SDS011;3649;48.798;9.798;2022-10-30T16:33:39;8.40;;;6.10;;
7215;SDS011;3649;48.798;9.798;2022-10-30T16:36:08;8.30;;;5.47;;
7215;SDS011;3649;48.798;9.798;2022-10-30T16:38:40;11.73;;;5.33;;
7215;SDS011;3649;48.798;9.798;2022-10-30T16:41:07;8.83;;;5.37;;
7215;SDS011;3649;48.798;9.798;2022-10-30T16:43:39;8.77;;;5.73;;
7215;SDS011;3649;48.798;9.798;2022-10-30T16:48:40;13.03;;;5.90;;
7215;SDS011;3649;48.798;9.798;2022-10-30T16:51:15;8.23;;;5.23;;
7215;SDS011;3649;48.798;9.798;2022-10-30T16:53:46;9.87;;;5.60;;
7215;SDS011;3649;48.798;9.798;2022-10-30T16:58:53;11.10;;;7.20;;
7215;SDS011;3649;48.798;9.798;2022-10-30T17:01:26;10.37;;;6.83;;
7215;SDS011;3649;48.798;9.798;2022-10-30T17:03:54;10.50;;;6.57;;
7215;SDS011;3649;48.798;9.798;2022-10-30T17:08:56;13.37;;;8.70;;
7215;SDS011;3649;48.798;9.798;2022-10-30T17:14:17;15.63;;;7.40;;
7215;SDS011;3649;48.798;9.798;2022-10-30T17:16:52;15.30;;;7.00;;
7215;SDS011;3649;48.798;9.798;2022-10-30T17:21:58;13.47;;;8.37;;
7215;SDS011;3649;48.798;9.798;2022-10-30T17:24:30;14.37;;;9.00;;
7215;SDS011;3649;48.798;9.798;2022-10-30T17:27:00;13.20;;;8.73;;
7215;SDS011;3649;48.798;9.798;2022-10-30T17:32:17;10.93;;;7.47;;
7215;SDS011;3649;48.798;9.798;2022-10-30T17:34:47;11.90;;;7.80;;
7215;SDS011;3649;48.798;9.798;2022-10-30T17:37:25;10.43;;;6.57;;
7215;SDS011;3649;48.798;9.798;2022-10-30T17:39:52;9.87;;;6.97;;
7215;SDS011;3649;48.798;9.798;2022-10-30T17:42:19;10.73;;;6.67;;
7215;SDS011;3649;48.798;9.798;2022-10-30T17:44:48;9.00;;;5.53;;
7215;SDS011;3649;48.798;9.798;2022-10-30T17:47:18;7.20;;;6.03;;
7215;SDS011;3649;48.798;9.798;2022-10-30T17:49:45;8.57;;;6.43;;
7215;SDS011;3649;48.798;9.798;2022-10-30T17:52:15;15.43;;;9.00;;
7215;SDS011;3649;48.798;9.798;2022-10-30T17:54:44;9.17;;;6.90;;
7215;SDS011;3649;48.798;9.798;2022-10-30T17:57:12;13.00;;;7.30;;
7215;SDS011;3649;48.798;9.798;2022-10-30T17:59:39;11.40;;;5.83;;
7215;SDS011;3649;48.798;9.798;2022-10-30T18:02:13;12.33;;;6.53;;
7215;SDS011;3649;48.798;9.798;2022-10-30T18:04:42;13.70;;;6.20;;
7215;SDS011;3649;48.798;9.798;2022-10-30T18:07:10;12.33;;;5.57;;
7215;SDS011;3649;48.798;9.798;2022-10-30T18:09:38;10.50;;;6.00;;
7215;SDS011;3649;48.798;9.798;2022-10-30T18:12:05;8.27;;;5.97;;
7215;SDS011;3649;48.798;9.798;2022-10-30T18:14:35;13.00;;;8.57;;
7215;SDS011;3649;48.798;9.798;2022-10-30T18:17:02;9.00;;;6.73;;
7215;SDS011;3649;48.798;9.798;2022-10-30T18:19:29;10.07;;;6.27;;
7215;SDS011;3649;48.798;9.798;2022-10-30T18:21:56;11.33;;;5.60;;
7215;SDS011;3649;48.798;9.798;2022-10-30T18:24:22;8.13;;;5.07;;